createdAt,value
2018-04-30T00:01:03.698Z,6.47
2018-04-30T00:03:34.632Z,6.83
2018-04-30T00:06:09.851Z,6.30
2018-04-30T00:08:40.561Z,6.50
2018-04-30T00:11:11.235Z,6.47
2018-04-30T00:13:42.575Z,6.40
2018-04-30T00:16:17.628Z,6.50
2018-04-30T00:18:48.629Z,6.77
2018-04-30T00:21:19.384Z,6.50
2018-04-30T00:23:54.157Z,6.83
2018-04-30T00:26:25.359Z,7.17
2018-04-30T00:28:56.521Z,6.90
2018-04-30T00:31:31.751Z,7.37
2018-04-30T00:34:02.664Z,7.70
2018-04-30T00:36:33.835Z,6.90
2018-04-30T00:39:04.104Z,6.87
2018-04-30T00:41:40.057Z,6.97
2018-04-30T00:44:15.293Z,7.07
2018-04-30T00:46:47.299Z,6.30
2018-04-30T00:49:22.111Z,7.07
2018-04-30T00:51:57.351Z,6.53
2018-04-30T00:54:38.998Z,6.50
2018-04-30T00:57:10.525Z,6.50
2018-04-30T00:59:45.626Z,7.10
2018-04-30T01:02:16.732Z,6.43
2018-04-30T01:04:48.765Z,6.97
2018-04-30T01:07:23.787Z,6.43
2018-04-30T01:09:54.933Z,6.57
2018-04-30T01:12:25.969Z,6.43
2018-04-30T01:14:56.862Z,6.50
2018-04-30T01:17:28.477Z,6.80
2018-04-30T01:20:03.067Z,7.20
2018-04-30T01:22:34.224Z,6.33
2018-04-30T01:25:05.179Z,6.30
2018-04-30T01:27:40.563Z,7.10
2018-04-30T01:30:15.636Z,6.73
2018-04-30T01:32:46.597Z,6.53
2018-04-30T01:35:21.517Z,6.80
2018-04-30T01:37:57.413Z,6.90
2018-04-30T01:40:30.281Z,6.60
2018-04-30T01:43:01.678Z,6.93
2018-04-30T01:45:32.894Z,6.90
2018-04-30T01:48:08.400Z,6.67
2018-04-30T01:50:39.401Z,7.10
2018-04-30T01:53:10.387Z,6.90
2018-04-30T01:55:45.263Z,6.60
2018-04-30T01:58:17.165Z,6.83
2018-04-30T02:00:48.617Z,7.50
2018-04-30T02:03:23.741Z,7.27
2018-04-30T02:05:58.457Z,8.03
2018-04-30T02:08:29.189Z,7.50
2018-04-30T02:11:00.245Z,7.47
2018-04-30T02:13:37.236Z,7.50
2018-04-30T02:16:12.323Z,7.70
2018-04-30T02:18:44.301Z,7.73
2018-04-30T02:21:16.542Z,9.17
2018-04-30T02:23:47.540Z,7.83
2018-04-30T02:26:18.674Z,7.20
2018-04-30T02:28:49.648Z,8.00
2018-04-30T02:31:24.173Z,7.43
2018-04-30T02:33:59.412Z,8.20
2018-04-30T02:36:30.403Z,8.27
2018-04-30T02:39:01.566Z,8.10
2018-04-30T02:41:36.165Z,9.03
2018-04-30T02:44:11.764Z,8.37
2018-04-30T02:46:42.905Z,8.03
2018-04-30T02:49:13.925Z,8.50
2018-04-30T02:51:49.681Z,8.37
2018-04-30T02:54:20.710Z,9.00
2018-04-30T02:56:51.499Z,9.10
2018-04-30T02:59:27.033Z,9.40
2018-04-30T03:02:02.047Z,9.40
2018-04-30T03:04:33.089Z,10.23
2018-04-30T03:07:03.621Z,8.77
2018-04-30T03:09:38.816Z,9.23
2018-04-30T03:12:13.841Z,9.53
2018-04-30T03:14:45.034Z,9.07
2018-04-30T03:17:19.920Z,9.90
2018-04-30T03:19:54.815Z,9.70
2018-04-30T03:22:25.601Z,10.07
2018-04-30T03:24:56.732Z,10.37
2018-04-30T03:27:31.737Z,9.90
2018-04-30T03:30:06.956Z,8.87
2018-04-30T03:32:37.927Z,10.17
2018-04-30T03:35:09.729Z,10.67
2018-04-30T03:37:44.758Z,9.97
2018-04-30T03:40:15.928Z,10.93
2018-04-30T03:42:48.039Z,10.10
2018-04-30T03:45:19.672Z,12.67
2018-04-30T03:47:54.789Z,10.87
2018-04-30T03:50:26.033Z,10.30
2018-04-30T03:52:57.481Z,10.47
2018-04-30T03:55:28.324Z,11.70
2018-04-30T03:58:04.264Z,11.17
2018-04-30T04:00:45.876Z,11.20
2018-04-30T04:03:27.081Z,12.17
2018-04-30T04:06:08.295Z,11.37
2018-04-30T04:08:43.544Z,11.93
2018-04-30T04:11:18.921Z,10.27
2018-04-30T04:13:54.541Z,11.27
2018-04-30T04:16:25.711Z,11.27
2018-04-30T04:18:56.811Z,10.60
2018-04-30T04:21:31.761Z,10.73
2018-04-30T04:24:06.735Z,11.47
2018-04-30T04:26:38.560Z,11.00
2018-04-30T04:29:09.564Z,10.37
2018-04-30T04:31:42.416Z,10.73
2018-04-30T04:34:19.505Z,10.27
2018-04-30T04:36:50.895Z,9.87
2018-04-30T04:39:21.603Z,10.63
2018-04-30T04:41:56.803Z,10.23
2018-04-30T04:44:27.775Z,10.13
2018-04-30T04:46:58.747Z,11.13
2018-04-30T04:49:31.020Z,11.70
2018-04-30T04:52:07.089Z,9.10
2018-04-30T04:54:38.310Z,8.97
2018-04-30T04:57:09.404Z,9.73
2018-04-30T04:59:45.106Z,9.33
2018-04-30T05:02:16.862Z,9.03
2018-04-30T05:04:48.023Z,9.03
2018-04-30T05:07:22.910Z,9.63
2018-04-30T05:09:57.742Z,10.50
2018-04-30T05:12:28.820Z,9.27
2018-04-30T05:15:00.596Z,9.40
2018-04-30T05:17:35.777Z,8.60
2018-04-30T05:20:11.004Z,8.97
2018-04-30T05:22:42.677Z,10.13
2018-04-30T05:25:19.323Z,8.63
2018-04-30T05:27:55.208Z,8.43
2018-04-30T05:30:26.688Z,8.30
2018-04-30T05:32:57.999Z,8.93
2018-04-30T05:35:34.091Z,8.43
2018-04-30T05:38:05.163Z,8.83
2018-04-30T05:40:36.994Z,8.67
2018-04-30T05:43:08.361Z,8.67
2018-04-30T05:45:43.405Z,8.83
2018-04-30T05:48:16.193Z,8.00
2018-04-30T05:50:47.407Z,7.93
2018-04-30T05:53:18.381Z,7.77
2018-04-30T05:55:54.236Z,7.10
2018-04-30T05:58:26.069Z,6.83
2018-04-30T06:00:56.925Z,8.13
2018-04-30T06:03:32.182Z,6.83
2018-04-30T06:06:07.057Z,7.57
2018-04-30T06:08:39.677Z,6.62
2018-04-30T06:11:11.875Z,8.75
2018-04-30T06:13:43.498Z,8.25
2018-04-30T06:16:17.933Z,8.32
2018-04-30T06:18:49.947Z,7.82
2018-04-30T06:21:26.067Z,7.60
2018-04-30T06:24:02.381Z,7.68
2018-04-30T06:26:34.074Z,7.05
2018-04-30T06:29:05.001Z,7.65
2018-04-30T06:31:40.135Z,8.23
2018-04-30T06:34:12.043Z,7.55
2018-04-30T06:36:43.557Z,6.68
2018-04-30T06:39:15.533Z,7.10
2018-04-30T06:41:51.595Z,7.10
2018-04-30T06:44:27.169Z,6.75
2018-04-30T06:46:59.671Z,7.10
2018-04-30T06:49:31.481Z,6.95
2018-04-30T06:52:07.244Z,6.82
2018-04-30T06:54:38.866Z,6.72
2018-04-30T06:57:10.270Z,6.95
2018-04-30T06:59:47.275Z,7.87
2018-04-30T07:02:22.760Z,6.70
2018-04-30T07:04:59.159Z,7.03
2018-04-30T07:07:31.299Z,7.47
2018-04-30T07:10:02.730Z,6.60
2018-04-30T07:12:34.333Z,6.20
2018-04-30T07:15:05.596Z,7.05
2018-04-30T07:17:41.659Z,6.12
2018-04-30T07:20:13.001Z,5.30
2018-04-30T07:22:44.644Z,5.18
2018-04-30T07:25:20.399Z,4.40
2018-04-30T07:27:56.318Z,4.50
2018-04-30T07:30:27.852Z,4.82
2018-04-30T07:32:59.261Z,5.00
2018-04-30T07:35:35.465Z,4.93
2018-04-30T07:38:07.243Z,4.80
2018-04-30T07:40:39.651Z,4.80
2018-04-30T07:43:13.143Z,4.80
2018-04-30T07:45:45.683Z,4.57
2018-04-30T07:48:22.001Z,4.30
2018-04-30T07:50:53.674Z,4.70
2018-04-30T07:53:31.018Z,3.97
2018-04-30T07:56:06.892Z,3.97
2018-04-30T10:47:04.630Z,1.00
2018-04-30T10:49:58.334Z,0.90
2018-04-30T10:52:35.704Z,1.10
2018-04-30T10:55:11.606Z,1.47
2018-04-30T10:57:43.261Z,1.10
2018-04-30T11:00:14.718Z,1.20
2018-04-30T11:02:53.268Z,1.10
2018-04-30T11:05:28.632Z,1.20
2018-04-30T11:07:59.950Z,1.10
2018-04-30T11:10:32.634Z,0.90
2018-04-30T11:13:10.310Z,1.12
2018-04-30T11:15:46.075Z,1.08
2018-04-30T11:18:37.491Z,1.00
2018-04-30T11:21:14.036Z,1.10
2018-04-30T11:23:46.612Z,1.00
2018-04-30T11:26:18.168Z,0.80
2018-04-30T11:28:49.698Z,1.45
2018-04-30T11:31:24.803Z,1.30
2018-04-30T11:33:56.273Z,1.00
2018-04-30T11:36:28.337Z,0.90
2018-04-30T11:39:01.775Z,1.10
2018-04-30T11:41:37.446Z,1.10
2018-04-30T11:44:08.802Z,1.10
2018-04-30T11:46:40.207Z,1.12
2018-04-30T11:49:11.980Z,1.12
2018-04-30T11:51:47.394Z,1.00
2018-04-30T11:54:18.822Z,1.23
2018-04-30T11:56:50.731Z,1.12
2018-04-30T11:59:22.088Z,1.30
2018-04-30T12:01:58.525Z,0.90
2018-04-30T12:04:30.680Z,0.82
2018-04-30T12:07:01.651Z,0.90
2018-04-30T12:09:37.403Z,1.08
2018-04-30T12:12:07.827Z,1.27
2018-04-30T12:14:39.435Z,0.80
2018-04-30T12:17:09.583Z,1.13
2018-04-30T12:19:44.761Z,1.00
2018-04-30T12:22:15.596Z,0.90
2018-04-30T12:24:46.675Z,1.00
2018-04-30T12:27:21.479Z,0.90
2018-04-30T12:29:57.159Z,0.90
2018-04-30T12:32:28.079Z,1.07
2018-04-30T12:34:58.802Z,0.90
2018-04-30T12:37:34.544Z,1.20
2018-04-30T12:40:08.509Z,0.90
2018-04-30T12:42:40.881Z,1.30
2018-04-30T12:45:12.151Z,1.00
2018-04-30T12:47:43.836Z,1.13
2018-04-30T12:50:14.800Z,1.27
2018-04-30T12:52:45.718Z,1.30
2018-04-30T12:55:16.803Z,1.17
2018-04-30T12:57:53.397Z,1.17
2018-04-30T13:00:25.138Z,1.57
2018-04-30T13:02:57.075Z,1.20
2018-04-30T13:05:32.781Z,1.30
2018-04-30T13:08:09.575Z,1.20
2018-04-30T13:10:40.517Z,1.30
2018-04-30T13:13:11.338Z,1.30
2018-04-30T13:15:46.220Z,1.30
2018-04-30T13:18:17.780Z,1.20
2018-04-30T13:20:48.758Z,1.37
2018-04-30T13:23:24.418Z,1.20
2018-04-30T13:25:56.554Z,1.40
2018-04-30T13:28:27.298Z,1.83
2018-04-30T13:30:58.992Z,1.50
2018-04-30T13:33:29.694Z,1.30
2018-04-30T13:36:07.322Z,1.10
2018-04-30T13:38:38.208Z,1.10
2018-04-30T13:41:09.764Z,1.10
2018-04-30T13:43:45.469Z,1.20
2018-04-30T13:46:17.016Z,1.30
2018-04-30T13:48:48.342Z,1.33
2018-04-30T13:51:19.153Z,1.17
2018-04-30T13:53:54.551Z,1.00
2018-04-30T13:56:26.013Z,1.00
2018-04-30T13:58:58.180Z,1.30
2018-04-30T14:01:35.128Z,1.15
2018-04-30T14:04:10.696Z,1.03
2018-04-30T14:06:42.303Z,1.20
2018-04-30T14:09:17.544Z,1.00
2018-04-30T14:11:53.604Z,1.10
2018-04-30T14:14:24.533Z,1.30
2018-04-30T14:16:56.140Z,1.10
2018-04-30T14:19:30.857Z,1.10
2018-04-30T14:22:04.973Z,1.27
2018-04-30T14:24:36.078Z,1.20
2018-04-30T14:27:12.040Z,1.33
2018-04-30T14:29:49.215Z,1.20
2018-04-30T14:32:20.726Z,1.10
2018-04-30T14:34:51.598Z,1.20
2018-04-30T14:37:28.875Z,1.10
2018-04-30T14:40:03.736Z,1.10
2018-04-30T14:42:35.267Z,1.20
2018-04-30T14:45:06.948Z,1.23
2018-04-30T14:47:45.401Z,1.10
2018-04-30T14:50:17.613Z,1.00
2018-04-30T14:52:49.925Z,2.60
2018-04-30T14:55:24.733Z,1.10
2018-04-30T14:57:55.577Z,1.60
2018-04-30T15:00:27.783Z,1.23
2018-04-30T15:02:59.516Z,0.90
2018-04-30T15:05:34.795Z,1.20
2018-04-30T15:08:12.203Z,1.20
2018-04-30T15:10:43.564Z,1.17
2018-04-30T15:13:14.951Z,1.10
2018-04-30T15:15:51.373Z,1.75
2018-04-30T15:18:23.021Z,1.62
2018-04-30T15:20:54.454Z,1.27
2018-04-30T15:23:29.823Z,1.20
2018-04-30T15:26:05.417Z,1.07
2018-04-30T15:28:36.361Z,1.20
2018-04-30T15:31:11.405Z,1.07
2018-04-30T15:33:43.334Z,1.10
2018-04-30T15:36:14.375Z,1.30
2018-04-30T15:38:45.329Z,1.30
2018-04-30T15:41:21.505Z,1.10
2018-04-30T15:43:56.527Z,1.27
2018-04-30T15:46:27.365Z,1.20
2018-04-30T15:49:02.033Z,1.10
2018-04-30T15:51:39.144Z,1.60
2018-04-30T15:54:14.006Z,2.07
2018-04-30T15:56:44.887Z,1.20
2018-04-30T15:59:20.880Z,1.20
2018-04-30T16:01:51.593Z,1.47
2018-04-30T16:04:22.645Z,6.83
2018-04-30T16:06:53.441Z,1.57
2018-04-30T16:09:24.353Z,1.80
2018-04-30T16:11:59.116Z,1.73
2018-04-30T16:14:30.255Z,1.80
2018-04-30T16:17:01.805Z,1.90
2018-04-30T16:19:37.538Z,1.47
2018-04-30T16:22:09.359Z,2.20
2018-04-30T16:24:40.293Z,7.80
2018-04-30T16:27:10.855Z,8.97
2018-04-30T16:29:46.147Z,3.33
2018-04-30T16:32:16.818Z,2.80
2018-04-30T16:34:47.968Z,3.07
2018-04-30T16:37:23.163Z,2.20
2018-04-30T16:39:58.824Z,2.30
2018-04-30T16:42:29.559Z,3.17
2018-04-30T16:45:00.463Z,10.67
2018-04-30T16:47:36.458Z,3.10
2018-04-30T16:50:12.295Z,2.93
2018-04-30T16:52:44.886Z,3.27
2018-04-30T16:55:20.284Z,3.30
2018-04-30T16:57:55.442Z,2.13
2018-04-30T17:00:26.508Z,2.90
2018-04-30T17:03:01.048Z,2.47
2018-04-30T17:05:36.512Z,2.87
2018-04-30T17:08:11.773Z,3.20
2018-04-30T17:10:42.753Z,3.17
2018-04-30T17:13:14.489Z,3.60
2018-04-30T17:15:49.500Z,4.13
2018-04-30T17:18:19.992Z,5.43
2018-04-30T17:20:50.834Z,5.93
2018-04-30T17:23:26.369Z,4.50
2018-04-30T17:26:02.594Z,4.23
2018-04-30T17:28:34.152Z,4.83
2018-04-30T17:31:09.480Z,3.67
2018-04-30T17:33:45.538Z,4.50
2018-04-30T17:36:16.820Z,3.10
2018-04-30T17:38:47.734Z,2.50
2018-04-30T17:41:23.290Z,2.50
2018-04-30T17:43:58.134Z,2.87
2018-04-30T17:46:29.086Z,3.57
2018-04-30T17:49:00.106Z,3.63
2018-04-30T17:51:35.292Z,3.50
2018-04-30T17:54:09.331Z,4.10
2018-04-30T17:56:40.568Z,4.67
2018-04-30T17:59:11.400Z,3.97
2018-04-30T18:01:46.494Z,3.83
2018-04-30T18:04:18.070Z,3.53
2018-04-30T18:06:49.067Z,4.57
2018-04-30T18:09:25.217Z,3.80
2018-04-30T18:11:59.772Z,3.30
2018-04-30T18:14:30.751Z,3.03
2018-04-30T18:17:02.778Z,3.20
2018-04-30T18:19:39.169Z,3.73
2018-04-30T18:22:14.268Z,3.40
2018-04-30T18:24:45.152Z,4.00
2018-04-30T18:27:19.862Z,3.80
2018-04-30T18:29:55.739Z,3.67
2018-04-30T18:32:27.499Z,5.53
2018-04-30T18:34:59.150Z,6.17
2018-04-30T18:37:34.092Z,5.57
2018-04-30T18:40:08.706Z,6.00
2018-04-30T18:42:39.617Z,6.10
2018-04-30T18:45:10.696Z,3.90
2018-04-30T18:47:47.110Z,4.60
2018-04-30T18:50:21.718Z,4.40
2018-04-30T18:52:52.722Z,4.50
2018-04-30T18:55:27.646Z,4.23
2018-04-30T18:58:02.552Z,3.90
2018-04-30T19:00:33.305Z,3.90
2018-04-30T19:03:04.084Z,5.60
2018-04-30T19:05:38.942Z,5.07
2018-04-30T19:08:09.171Z,5.87
2018-04-30T19:10:40.455Z,5.30
2018-04-30T19:13:12.413Z,5.10
2018-04-30T19:15:49.082Z,5.40
2018-04-30T19:18:20.045Z,4.77
2018-04-30T19:20:54.640Z,4.40
2018-04-30T19:23:29.336Z,4.40
2018-04-30T19:26:04.025Z,3.90
2018-04-30T19:28:34.990Z,4.60
2018-04-30T19:31:07.784Z,4.17
2018-04-30T19:33:38.794Z,4.00
2018-04-30T19:36:08.929Z,4.50
2018-04-30T19:38:39.761Z,3.83
2018-04-30T19:41:10.560Z,4.47
2018-04-30T19:43:46.996Z,4.10
2018-04-30T19:46:17.129Z,3.87
2018-04-30T19:48:48.137Z,4.80
2018-04-30T19:51:19.047Z,5.50
2018-04-30T19:53:49.790Z,6.10
2018-04-30T19:56:20.583Z,5.37
2018-04-30T19:58:52.277Z,4.67
2018-04-30T20:01:29.324Z,4.80
2018-04-30T20:04:00.242Z,4.50
2018-04-30T20:06:31.395Z,4.83
2018-04-30T20:09:02.375Z,5.07
2018-04-30T20:11:37.246Z,5.77
2018-04-30T20:14:12.383Z,6.57
2018-04-30T20:16:43.080Z,8.43
2018-04-30T20:19:17.691Z,8.33
2018-04-30T20:21:49.299Z,7.30
2018-04-30T20:24:21.382Z,10.97
2018-04-30T20:26:53.041Z,12.37
2018-04-30T20:29:28.857Z,12.33
2018-04-30T20:32:03.599Z,14.07
2018-04-30T20:34:33.996Z,12.07
2018-04-30T20:37:05.416Z,14.10
2018-04-30T20:39:36.568Z,15.57
2018-04-30T20:42:08.407Z,17.20
2018-04-30T20:44:41.043Z,14.10
2018-04-30T20:47:12.123Z,12.80
2018-04-30T20:49:48.429Z,13.43
2018-04-30T20:52:21.072Z,14.03
2018-04-30T20:54:52.682Z,26.20
2018-04-30T20:57:23.676Z,21.70
2018-04-30T20:59:58.425Z,18.07
2018-04-30T21:02:29.227Z,16.70
2018-04-30T21:05:00.807Z,16.00
2018-04-30T21:07:35.304Z,18.73
2018-04-30T21:10:06.261Z,16.97
2018-04-30T21:12:37.071Z,17.47
2018-04-30T21:15:07.780Z,18.37
2018-04-30T21:17:42.547Z,18.87
2018-04-30T21:20:17.517Z,19.13
2018-04-30T21:22:48.327Z,22.60
2018-04-30T21:25:23.481Z,27.50
2018-04-30T21:27:54.566Z,28.43
2018-04-30T21:30:26.197Z,27.57
2018-04-30T21:32:57.065Z,23.80
2018-04-30T21:35:31.694Z,23.93
2018-04-30T21:38:07.220Z,21.77
2018-04-30T21:40:38.443Z,21.43
2018-04-30T21:43:14.428Z,20.93
2018-04-30T21:45:49.289Z,21.90
2018-04-30T21:48:19.506Z,22.70
2018-04-30T21:50:50.836Z,23.60
2018-04-30T21:53:26.462Z,25.63
2018-04-30T21:56:01.630Z,23.47
2018-04-30T21:58:33.256Z,25.83
2018-04-30T22:01:04.048Z,25.97
2018-04-30T22:03:40.586Z,25.80
2018-04-30T22:06:15.800Z,28.13
2018-04-30T22:08:46.622Z,31.93
2018-04-30T22:11:22.048Z,31.40
2018-04-30T22:13:57.812Z,30.27
2018-04-30T22:16:28.730Z,30.90
2018-04-30T22:19:00.581Z,31.27
2018-04-30T22:21:35.500Z,33.07
2018-04-30T22:24:10.754Z,30.63
2018-04-30T22:26:42.614Z,33.13
2018-04-30T22:29:18.218Z,35.50
2018-04-30T22:31:53.365Z,36.33
2018-04-30T22:34:25.014Z,32.63
2018-04-30T22:36:56.266Z,33.73
2018-04-30T22:39:31.032Z,34.37
2018-04-30T22:42:07.380Z,36.10
2018-04-30T22:44:38.298Z,36.90
2018-04-30T22:47:09.370Z,38.57
2018-04-30T22:49:45.177Z,37.97
2018-04-30T22:52:16.047Z,37.97
2018-04-30T22:54:48.091Z,38.83
2018-04-30T22:57:18.536Z,37.23
2018-04-30T22:59:54.086Z,36.63
2018-04-30T23:02:25.096Z,38.63
2018-04-30T23:04:56.236Z,38.47
2018-04-30T23:07:31.231Z,40.50
2018-04-30T23:10:06.921Z,38.67
2018-04-30T23:12:38.086Z,40.70
2018-04-30T23:15:10.016Z,39.63
2018-04-30T23:17:42.572Z,39.30
2018-04-30T23:20:18.092Z,37.13
2018-04-30T23:22:49.997Z,37.83
2018-04-30T23:25:25.544Z,40.03
2018-04-30T23:28:02.078Z,40.03
2018-04-30T23:30:33.930Z,40.00
2018-04-30T23:33:05.925Z,39.27
2018-04-30T23:35:40.747Z,39.77
2018-04-30T23:38:15.112Z,39.70
2018-04-30T23:40:46.324Z,41.60
2018-04-30T23:43:21.300Z,41.43
2018-04-30T23:45:55.993Z,42.37
2018-04-30T23:48:27.058Z,42.43
2018-04-30T23:50:58.056Z,40.73
2018-04-30T23:53:33.093Z,40.97
2018-04-30T23:56:07.054Z,44.53
2018-04-30T23:58:38.282Z,44.77
